Time,TemperatureF,DewpointF,PressureIn,WindDirection,WindDirectionDegrees,WindSpeedMPH,WindSpeedGustMPH,Humidity,HourlyPrecipIn,Conditions,Clouds,dailyrainin,SoftwareType,DateUTC
2013-11-22 00:10:00,41.0,37.0,30.38,South,189,0.0,0.0,84,0.00,,,0.00,weatherlink.com 1.10,2013-11-22 05:10:00,
2013-11-22 00:25:00,40.9,37.0,30.37,South,189,0.0,0.0,86,0.00,,,0.00,weatherlink.com 1.10,2013-11-22 05:25:00,
2013-11-22 00:40:00,40.7,36.0,30.37,South,188,0.0,0.0,83,0.00,,,0.00,weatherlink.com 1.10,2013-11-22 05:40:00,
2013-11-22 00:55:00,40.7,36.0,30.36,South,189,0.0,0.0,83,0.00,,,0.00,weatherlink.com 1.10,2013-11-22 05:55:00,
2013-11-22 01:10:00,40.6,36.0,30.35,South,189,0.0,0.0,84,0.00,,,0.00,weatherlink.com 1.10,2013-11-22 06:10:00,
2013-11-22 01:25:00,40.8,37.0,30.35,South,189,0.0,0.0,85,0.00,,,0.00,weatherlink.com 1.10,2013-11-22 06:25:00,
2013-11-22 01:41:00,40.8,37.0,30.34,South,189,0.0,0.0,85,0.00,,,0.00,weatherlink.com 1.10,2013-11-22 06:41:00,
2013-11-22 01:56:00,40.7,37.0,30.34,South,189,0.0,0.0,86,0.00,,,0.00,weatherlink.com 1.10,2013-11-22 06:56:00,
2013-11-22 02:11:00,40.8,37.0,30.34,South,189,0.0,0.0,86,0.00,,,0.00,weatherlink.com 1.10,2013-11-22 07:11:00,
2013-11-22 02:26:00,40.8,37.0,30.33,South,189,0.0,0.0,87,0.00,,,0.00,weatherlink.com 1.10,2013-11-22 07:26:00,
2013-11-22 02:41:00,40.9,38.0,30.32,South,189,0.0,0.0,88,0.00,,,0.00,weatherlink.com 1.10,2013-11-22 07:41:00,
2013-11-22 02:56:00,41.0,37.0,30.31,South,189,0.0,0.0,87,0.00,,,0.00,weatherlink.com 1.10,2013-11-22 07:56:00,
2013-11-22 03:11:00,41.2,38.0,30.30,South,189,0.0,0.0,87,0.00,,,0.00,weatherlink.com 1.10,2013-11-22 08:11:00,
2013-11-22 03:26:00,41.4,38.0,30.28,South,189,0.0,0.0,87,0.00,,,0.00,weatherlink.com 1.10,2013-11-22 08:26:00,
2013-11-22 03:41:00,41.7,38.0,30.28,South,189,0.0,0.0,88,0.00,,,0.00,weatherlink.com 1.10,2013-11-22 08:41:00,
2013-11-22 03:56:00,42.1,39.0,30.28,South,189,0.0,0.0,88,0.00,,,0.00,weatherlink.com 1.10,2013-11-22 08:56:00,
2013-11-22 04:11:00,42.4,40.0,30.27,South,189,0.0,0.0,90,0.00,,,0.00,weatherlink.com 1.10,2013-11-22 09:11:00,
2013-11-22 04:26:00,42.6,40.0,30.27,South,188,0.0,0.0,90,0.00,,,0.00,weatherlink.com 1.10,2013-11-22 09:26:00,
2013-11-22 04:41:00,42.5,40.0,30.27,South,188,0.0,0.0,90,0.00,,,0.00,weatherlink.com 1.10,2013-11-22 09:41:00,
2013-11-22 04:56:00,42.6,40.0,30.26,South,189,0.0,0.0,89,0.00,,,0.00,weatherlink.com 1.10,2013-11-22 09:56:00,
2013-11-22 05:11:00,42.4,39.0,30.26,South,189,0.0,0.0,88,0.00,,,0.00,weatherlink.com 1.10,2013-11-22 10:11:00,
2013-11-22 05:26:00,42.6,40.0,30.25,South,189,0.0,0.0,90,0.00,,,0.00,weatherlink.com 1.10,2013-11-22 10:26:00,
2013-11-22 05:41:00,42.8,40.0,30.24,South,189,0.0,0.0,90,0.00,,,0.00,weatherlink.com 1.10,2013-11-22 10:41:00,
2013-11-22 05:56:00,43.0,41.0,30.23,South,189,0.0,0.0,91,0.00,,,0.00,weatherlink.com 1.10,2013-11-22 10:56:00,
2013-11-22 06:11:00,43.0,41.0,30.23,South,189,0.0,0.0,91,0.00,,,0.00,weatherlink.com 1.10,2013-11-22 11:11:00,
2013-11-22 06:26:00,43.2,41.0,30.22,South,189,0.0,0.0,92,0.00,,,0.00,weatherlink.com 1.10,2013-11-22 11:26:00,
2013-11-22 06:41:00,43.1,41.0,30.21,South,189,0.0,0.0,92,0.00,,,0.00,weatherlink.com 1.10,2013-11-22 11:41:00,
2013-11-22 06:56:00,43.1,41.0,30.21,South,189,0.0,0.0,93,0.00,,,0.00,weatherlink.com 1.10,2013-11-22 11:56:00,
2013-11-22 07:11:00,43.0,41.0,30.20,South,189,0.0,0.0,94,0.00,,,0.00,weatherlink.com 1.10,2013-11-22 12:11:00,
2013-11-22 07:26:00,42.8,41.0,30.20,South,189,0.0,0.0,94,0.01,,,0.01,weatherlink.com 1.10,2013-11-22 12:26:00,
2013-11-22 07:41:00,42.9,42.0,30.20,South,188,0.0,0.0,95,0.02,,,0.02,weatherlink.com 1.10,2013-11-22 12:41:00,
2013-11-22 07:56:00,42.9,42.0,30.19,South,189,0.0,0.0,95,0.03,,,0.03,weatherlink.com 1.10,2013-11-22 12:56:00,
2013-11-22 08:12:00,43.0,42.0,30.18,South,189,0.0,0.0,96,0.04,,,0.04,weatherlink.com 1.10,2013-11-22 13:12:00,
2013-11-22 08:26:00,43.3,42.0,30.18,South,189,0.0,0.0,96,0.04,,,0.05,weatherlink.com 1.10,2013-11-22 13:26:00,
2013-11-22 08:41:00,43.3,42.0,30.17,South,189,0.0,0.0,96,0.03,,,0.05,weatherlink.com 1.10,2013-11-22 13:41:00,
2013-11-22 08:56:00,43.4,42.0,30.17,South,188,0.0,0.0,96,0.02,,,0.05,weatherlink.com 1.10,2013-11-22 13:56:00,
2013-11-22 09:12:00,43.5,43.0,30.16,South,188,0.0,0.0,96,0.02,,,0.06,weatherlink.com 1.10,2013-11-22 14:12:00,
2013-11-22 09:27:00,43.8,43.0,30.16,South,188,0.0,0.0,97,0.01,,,0.06,weatherlink.com 1.10,2013-11-22 14:27:00,
2013-11-22 09:42:00,44.3,44.0,30.14,South,188,0.0,0.0,97,0.03,,,0.08,weatherlink.com 1.10,2013-11-22 14:42:00,
2013-11-22 09:57:00,44.7,44.0,30.14,South,188,0.0,0.0,97,0.04,,,0.09,weatherlink.com 1.10,2013-11-22 14:57:00,
2013-11-22 10:12:00,44.9,44.0,30.14,South,188,0.0,0.0,97,0.03,,,0.09,weatherlink.com 1.10,2013-11-22 15:12:00,
2013-11-22 10:27:00,45.2,44.0,30.12,South,188,0.0,0.0,97,0.04,,,0.11,weatherlink.com 1.10,2013-11-22 15:27:00,
2013-11-22 10:42:00,45.6,45.0,30.11,South,188,0.0,0.0,97,0.04,,,0.12,weatherlink.com 1.10,2013-11-22 15:42:00,
2013-11-22 10:57:00,46.1,46.0,30.10,South,188,0.0,0.0,98,0.03,,,0.12,weatherlink.com 1.10,2013-11-22 15:57:00,
2013-11-22 11:12:00,46.8,46.0,30.09,SSE,165,0.0,2.0,98,0.03,,,0.12,weatherlink.com 1.10,2013-11-22 16:12:00,
2013-11-22 11:27:00,47.5,47.0,30.07,SSE,162,0.0,1.0,98,0.02,,,0.13,weatherlink.com 1.10,2013-11-22 16:27:00,
2013-11-22 11:42:00,48.0,48.0,30.07,SSE,150,0.0,1.0,98,0.01,,,0.13,weatherlink.com 1.10,2013-11-22 16:42:00,
2013-11-22 11:57:00,48.4,48.0,30.06,SSE,168,0.0,1.0,98,0.01,,,0.13,weatherlink.com 1.10,2013-11-22 16:57:00,
2013-11-22 12:12:00,49.0,48.0,30.06,South,170,0.0,3.0,97,0.01,,,0.13,weatherlink.com 1.10,2013-11-22 17:12:00,
2013-11-22 12:27:00,49.7,48.0,30.04,SE,132,0.0,2.0,95,0.00,,,0.13,weatherlink.com 1.10,2013-11-22 17:27:00,
2013-11-22 12:42:00,50.0,48.0,30.04,East,95,1.0,2.0,94,0.00,,,0.13,weatherlink.com 1.10,2013-11-22 17:42:00,
2013-11-22 12:57:00,50.5,48.0,30.02,East,83,0.0,2.0,92,0.00,,,0.13,weatherlink.com 1.10,2013-11-22 17:57:00,
2013-11-22 13:12:00,50.9,48.0,30.02,ENE,74,0.0,2.0,91,0.00,,,0.13,weatherlink.com 1.10,2013-11-22 18:12:00,
2013-11-22 13:27:00,51.0,48.0,30.02,NE,44,1.0,3.0,90,0.00,,,0.13,weatherlink.com 1.10,2013-11-22 18:27:00,
2013-11-22 13:42:00,50.9,48.0,30.01,NNW,342,2.0,3.0,90,0.00,,,0.13,weatherlink.com 1.10,2013-11-22 18:42:00,
2013-11-22 13:57:00,51.0,48.0,30.01,NNW,340,2.0,3.0,89,0.00,,,0.13,weatherlink.com 1.10,2013-11-22 18:57:00,
2013-11-22 14:12:00,51.0,48.0,30.01,SE,127,0.0,3.0,89,0.00,,,0.13,weatherlink.com 1.10,2013-11-22 19:12:00,
2013-11-22 14:28:00,51.0,48.0,30.00,ESE,119,0.0,3.0,89,0.00,,,0.13,weatherlink.com 1.10,2013-11-22 19:28:00,
2013-11-22 14:43:00,51.0,48.0,30.01,SSE,154,0.0,3.0,89,0.00,,,0.13,weatherlink.com 1.10,2013-11-22 19:43:00,
2013-11-22 14:58:00,51.1,48.0,30.00,ESE,103,0.0,1.0,89,0.00,,,0.13,weatherlink.com 1.10,2013-11-22 19:58:00,
2013-11-22 15:13:00,51.0,48.0,29.99,SSE,160,0.0,1.0,89,0.00,,,0.13,weatherlink.com 1.10,2013-11-22 20:13:00,
2013-11-22 15:28:00,50.8,48.0,29.99,SSE,160,0.0,0.0,90,0.00,,,0.13,weatherlink.com 1.10,2013-11-22 20:28:00,
2013-11-22 15:43:00,50.6,48.0,29.99,SSE,160,0.0,0.0,90,0.00,,,0.13,weatherlink.com 1.10,2013-11-22 20:43:00,
2013-11-22 15:58:00,50.3,48.0,29.98,SSE,160,0.0,0.0,91,0.00,,,0.13,weatherlink.com 1.10,2013-11-22 20:58:00,
2013-11-22 16:13:00,49.9,47.0,29.98,SSE,160,0.0,0.0,91,0.00,,,0.13,weatherlink.com 1.10,2013-11-22 21:13:00,
2013-11-22 16:28:00,49.3,47.0,29.96,SSE,163,0.0,0.0,92,0.00,,,0.13,weatherlink.com 1.10,2013-11-22 21:28:00,
2013-11-22 16:43:00,48.7,47.0,29.97,SSE,165,0.0,0.0,93,0.00,,,0.13,weatherlink.com 1.10,2013-11-22 21:43:00,
2013-11-22 16:58:00,48.2,47.0,29.97,SSE,165,0.0,0.0,94,0.00,,,0.13,weatherlink.com 1.10,2013-11-22 21:58:00,
2013-11-22 17:13:00,47.8,47.0,29.97,SSE,165,0.0,0.0,95,0.00,,,0.13,weatherlink.com 1.10,2013-11-22 22:13:00,
2013-11-22 17:28:00,47.7,46.0,29.96,SSE,165,0.0,0.0,95,0.00,,,0.13,weatherlink.com 1.10,2013-11-22 22:28:00,
2013-11-22 17:43:00,47.5,47.0,29.95,SSE,165,0.0,0.0,96,0.00,,,0.13,weatherlink.com 1.10,2013-11-22 22:43:00,
2013-11-22 17:58:00,47.3,46.0,29.95,SSE,165,0.0,0.0,96,0.00,,,0.13,weatherlink.com 1.10,2013-11-22 22:58:00,
2013-11-22 18:13:00,46.8,46.0,29.95,SSE,165,0.0,0.0,96,0.00,,,0.13,weatherlink.com 1.10,2013-11-22 23:13:00,
2013-11-22 18:28:00,46.8,46.0,29.94,SSE,165,0.0,0.0,96,0.00,,,0.13,weatherlink.com 1.10,2013-11-22 23:28:00,
2013-11-22 18:43:00,46.9,46.0,29.94,SSE,165,0.0,0.0,97,0.00,,,0.13,weatherlink.com 1.10,2013-11-22 23:43:00,
2013-11-22 18:58:00,47.1,46.0,29.93,SSE,165,0.0,0.0,97,0.00,,,0.13,weatherlink.com 1.10,2013-11-22 23:58:00,
2013-11-22 19:13:00,46.8,46.0,29.93,SSE,165,0.0,0.0,97,0.00,,,0.13,weatherlink.com 1.10,2013-11-23 00:13:00,
2013-11-22 19:28:00,46.8,46.0,29.93,SSE,165,0.0,0.0,97,0.00,,,0.13,weatherlink.com 1.10,2013-11-23 00:28:00,
2013-11-22 19:43:00,46.9,46.0,29.92,SSE,164,0.0,0.0,97,0.00,,,0.13,weatherlink.com 1.10,2013-11-23 00:43:00,
2013-11-22 19:58:00,47.3,47.0,29.92,SSE,164,0.0,0.0,97,0.00,,,0.13,weatherlink.com 1.10,2013-11-23 00:58:00,
2013-11-22 20:13:00,47.8,47.0,29.92,SSE,164,0.0,0.0,97,0.00,,,0.13,weatherlink.com 1.10,2013-11-23 01:13:00,
2013-11-22 20:28:00,47.9,47.0,29.92,SSE,164,0.0,0.0,97,0.00,,,0.13,weatherlink.com 1.10,2013-11-23 01:28:00,
2013-11-22 20:43:00,48.0,47.0,29.91,SSE,164,0.0,0.0,97,0.00,,,0.13,weatherlink.com 1.10,2013-11-23 01:43:00,
2013-11-22 20:58:00,48.5,48.0,29.91,SSE,164,0.0,0.0,96,0.00,,,0.13,weatherlink.com 1.10,2013-11-23 01:58:00,
2013-11-22 21:13:00,49.1,48.0,29.90,South,169,1.0,1.0,94,0.00,,,0.13,weatherlink.com 1.10,2013-11-23 02:13:00,
2013-11-22 21:28:00,49.5,48.0,29.90,SE,143,0.0,1.0,93,0.00,,,0.13,weatherlink.com 1.10,2013-11-23 02:28:00,
2013-11-22 21:43:00,49.7,48.0,29.89,SE,143,1.0,1.0,93,0.00,,,0.13,weatherlink.com 1.10,2013-11-23 02:43:00,
2013-11-22 21:58:00,49.9,48.0,29.88,SSE,149,0.0,0.0,92,0.00,,,0.13,weatherlink.com 1.10,2013-11-23 02:58:00,
2013-11-22 22:13:00,49.9,48.0,29.88,SSE,149,0.0,0.0,92,0.00,,,0.13,weatherlink.com 1.10,2013-11-23 03:13:00,
2013-11-22 22:28:00,49.8,48.0,29.88,SSE,149,0.0,0.0,92,0.00,,,0.13,weatherlink.com 1.10,2013-11-23 03:28:00,
2013-11-22 22:43:00,49.7,48.0,29.88,SSE,149,0.0,0.0,93,0.00,,,0.13,weatherlink.com 1.10,2013-11-23 03:43:00,
2013-11-22 22:58:00,50.1,48.0,29.87,SSE,165,0.0,0.0,93,0.00,,,0.13,weatherlink.com 1.10,2013-11-23 03:58:00,
2013-11-22 23:13:00,50.3,48.0,29.87,SSE,147,0.0,0.0,92,0.00,,,0.13,weatherlink.com 1.10,2013-11-23 04:13:00,
2013-11-22 23:28:00,50.4,48.0,29.87,SSE,147,0.0,1.0,92,0.00,,,0.13,weatherlink.com 1.10,2013-11-23 04:28:00,
2013-11-22 23:43:00,50.4,48.0,29.86,SE,143,0.0,1.0,91,0.00,,,0.13,weatherlink.com 1.10,2013-11-23 04:43:00,
2013-11-22 23:58:00,50.4,48.0,29.86,ENE,76,0.0,2.0,91,0.00,,,0.13,weatherlink.com 1.10,2013-11-23 04:58:00,